Aviation Digital Data Service (ADDS)

Output produced by METARs form (0045 UTC 01 November 2014)
found at http://www.aviationweather.gov/adds/metars/
 
KSPI 312325Z 0100/0124 35013G23KT P6SM SKC 
     FM010400 34012KT P6SM SKC 
     FM011500 02010KT P6SM SKC